Time;durP1;ratioP1;P1;durP2;ratioP2;P2;SDS_P1;SDS_P2;PMS_P1;PMS_P2;Temp;Humidity;BMP_temperature;BMP_pressure;BME280_temperature;BME280_humidity;BME280_pressure;Samples;Min_cycle;Max_cycle;Signal;HPM_P1;HPM_P2
2021/10/31 00:02:24;;;;;;;2.10;0.98;;;11.40;95.50;;;;;;4950967;29;21708;-75
2021/10/31 00:04:52;;;;;;;2.00;1.00;;;11.40;95.50;;;;;;4945859;28;20035;-76
2021/10/31 00:07:19;;;;;;;2.58;0.88;;;11.40;95.50;;;;;;4935080;29;20447;-76
2021/10/31 00:09:45;;;;;;;1.98;0.85;;;11.30;95.50;;;;;;4945279;29;20086;-76
2021/10/31 00:12:13;;;;;;;2.13;1.10;;;11.30;95.60;;;;;;4915991;29;20821;-75
2021/10/31 00:14:40;;;;;;;2.58;0.95;;;11.30;95.60;;;;;;4917760;29;20043;-75
2021/10/31 00:17:07;;;;;;;2.25;0.90;;;11.30;95.70;;;;;;4947251;28;20115;-75
2021/10/31 00:19:34;;;;;;;2.20;0.88;;;11.20;95.80;;;;;;4920848;29;20054;-75
2021/10/31 00:22:02;;;;;;;2.55;0.95;;;11.20;95.60;;;;;;4930766;29;20055;-75
2021/10/31 00:24:29;;;;;;;2.88;0.93;;;11.20;95.60;;;;;;4936227;29;20044;-76
2021/10/31 00:26:56;;;;;;;1.75;0.90;;;11.20;95.60;;;;;;4933923;29;20079;-76
2021/10/31 00:29:23;;;;;;;1.58;0.60;;;11.10;95.60;;;;;;4924671;29;20044;-75
2021/10/31 00:31:50;;;;;;;1.70;0.70;;;11.10;95.60;;;;;;4918952;29;20141;-76
2021/10/31 00:34:17;;;;;;;2.53;0.90;;;11.10;95.60;;;;;;4919323;29;20058;-76
2021/10/31 00:36:44;;;;;;;1.33;0.50;;;11.10;95.60;;;;;;4948676;28;20137;-78
2021/10/31 00:39:11;;;;;;;1.98;0.80;;;11.10;95.60;;;;;;4946013;29;20118;-78
2021/10/31 00:41:38;;;;;;;2.00;1.13;;;11.00;95.60;;;;;;4925684;29;20051;-78
2021/10/31 00:44:05;;;;;;;2.00;0.60;;;11.00;95.60;;;;;;4931388;29;20503;-78
2021/10/31 00:46:32;;;;;;;2.97;0.80;;;11.00;95.60;;;;;;4922761;28;21321;-78
2021/10/31 00:49:00;;;;;;;1.83;0.77;;;10.90;95.60;;;;;;4947976;29;20063;-79
2021/10/31 00:51:27;;;;;;;1.38;0.70;;;10.90;95.60;;;;;;4940698;29;20063;-79
2021/10/31 00:53:57;;;;;;;1.58;0.70;;;10.90;95.60;;;;;;4944040;29;20521;-79
2021/10/31 00:56:25;;;;;;;1.92;0.80;;;10.90;95.60;;;;;;4959545;28;20078;-78
2021/10/31 00:58:52;;;;;;;1.73;0.82;;;10.80;95.80;;;;;;4963448;28;20043;-78
2021/10/31 01:01:20;;;;;;;1.92;0.88;;;10.80;95.60;;;;;;4971846;28;20039;-78
2021/10/31 01:03:48;;;;;;;2.28;0.70;;;10.80;95.60;;;;;;4952434;28;20031;-78
2021/10/31 01:06:50;;;;;;;1.52;0.60;;;10.80;95.60;;;;;;4941992;28;20043;-78
2021/10/31 01:09:32;;;;;;;1.45;0.70;;;10.80;95.60;;;;;;4966691;28;20122;-79
2021/10/31 01:12:31;;;;;;;2.70;0.75;;;10.70;95.60;;;;;;4961393;28;20117;-78
2021/10/31 01:15:01;;;;;;;1.35;0.50;;;10.70;95.60;;;;;;4965122;28;20122;-79
2021/10/31 01:17:49;;;;;;;2.97;0.85;;;10.60;95.60;;;;;;4960554;28;20046;-78
2021/10/31 01:20:25;;;;;;;2.00;0.90;;;10.60;95.70;;;;;;4968668;28;20050;-79
2021/10/31 01:23:16;;;;;;;2.28;0.93;;;10.60;95.70;;;;;;4956689;28;20744;-78
2021/10/31 01:26:17;;;;;;;2.35;0.90;;;10.60;95.70;;;;;;4954156;28;20047;-78
2021/10/31 01:29:02;;;;;;;1.90;0.77;;;10.60;95.60;;;;;;4971286;28;20043;-78
2021/10/31 01:32:05;;;;;;;1.70;0.90;;;10.60;95.70;;;;;;4965382;28;20054;-79
2021/10/31 01:34:58;;;;;;;2.78;0.80;;;10.60;95.60;;;;;;4962798;28;20043;-78
2021/10/31 01:37:28;;;;;;;;;;;10.50;95.60;;;;;;4941462;28;20137;-78
2021/10/31 01:40:05;;;;;;;2.63;0.93;;;10.50;95.60;;;;;;4968516;28;19922;-78
2021/10/31 01:43:16;;;;;;;3.17;1.35;;;10.40;95.70;;;;;;4963467;28;20058;-78
2021/10/31 01:46:00;;;;;;;2.33;1.02;;;10.50;95.70;;;;;;4948759;28;20047;-78
2021/10/31 01:48:34;;;;;;;3.47;0.75;;;10.50;95.70;;;;;;4966072;28;20101;-78
2021/10/31 01:51:07;;;;;;;1.85;0.73;;;10.40;95.70;;;;;;4965197;28;20377;-79
2021/10/31 01:53:57;;;;;;;1.73;0.73;;;10.40;95.70;;;;;;4961706;28;20051;-79
2021/10/31 01:56:26;;;;;;;2.78;0.90;;;10.40;95.70;;;;;;4961276;28;20108;-78
2021/10/31 01:59:06;;;;;;;1.67;0.75;;;10.40;95.70;;;;;;4959079;28;20496;-78
2021/10/31 02:01:36;;;;;;;1.70;0.90;;;10.30;95.60;;;;;;4961883;28;20118;-79
2021/10/31 02:04:07;;;;;;;1.75;0.80;;;10.30;95.70;;;;;;4949344;28;20042;-78
2021/10/31 02:06:38;;;;;;;2.45;0.88;;;10.30;95.70;;;;;;4962082;28;20074;-78
2021/10/31 02:09:06;;;;;;;2.45;0.80;;;10.30;95.70;;;;;;4962692;28;20522;-78
2021/10/31 02:11:35;;;;;;;1.83;0.68;;;10.20;95.70;;;;;;4948569;28;20047;-78
2021/10/31 02:14:04;;;;;;;3.60;0.60;;;10.20;95.70;;;;;;4963259;28;20038;-79
2021/10/31 02:16:34;;;;;;;1.42;0.55;;;10.20;95.70;;;;;;4959625;28;20545;-78
2021/10/31 02:19:05;;;;;;;2.85;0.90;;;10.20;95.70;;;;;;4961524;28;20467;-78
2021/10/31 02:21:35;;;;;;;3.33;0.73;;;10.20;95.70;;;;;;4961770;28;20043;-78
2021/10/31 02:24:06;;;;;;;2.15;0.75;;;10.10;95.70;;;;;;4967412;28;20113;-78
2021/10/31 02:26:37;;;;;;;1.92;0.80;;;10.10;95.70;;;;;;4963200;28;20113;-77
2021/10/31 02:29:07;;;;;;;1.77;0.60;;;10.10;95.70;;;;;;4964544;28;20035;-77
2021/10/31 02:31:37;;;;;;;1.95;0.75;;;10.10;95.70;;;;;;4966456;28;20047;-77
2021/10/31 02:34:06;;;;;;;2.83;0.85;;;10.10;95.70;;;;;;4941159;28;20063;-77
2021/10/31 02:36:34;;;;;;;1.95;0.90;;;10.10;95.70;;;;;;4941865;29;20047;-78
2021/10/31 02:39:04;;;;;;;3.40;1.73;;;10.10;95.70;;;;;;4941348;28;20047;-78
2021/10/31 02:41:32;;;;;;;2.00;0.88;;;10.00;95.70;;;;;;4943903;28;20051;-77
2021/10/31 02:44:00;;;;;;;2.70;1.00;;;10.00;95.70;;;;;;4963916;28;20047;-77
2021/10/31 02:46:31;;;;;;;2.28;0.90;;;10.00;95.70;;;;;;4975723;28;20047;-77
2021/10/31 02:48:59;;;;;;;2.70;0.70;;;10.00;95.70;;;;;;4963343;28;20085;-74
2021/10/31 02:51:44;;;;;;;1.40;0.60;;;10.00;95.70;;;;;;4939738;28;20094;-74
2021/10/31 02:54:36;;;;;;;1.67;0.82;;;10.00;95.70;;;;;;4960371;28;20039;-74
2021/10/31 02:57:14;;;;;;;1.70;0.70;;;10.00;95.70;;;;;;4967644;28;20089;-74
2021/10/31 02:59:50;;;;;;;2.10;1.00;;;10.00;95.70;;;;;;4976060;28;20057;-74
2021/10/31 03:02:18;;;;;;;3.35;0.90;;;10.00;95.70;;;;;;4961776;28;20043;-74
2021/10/31 03:04:46;;;;;;;1.60;0.68;;;9.90;95.70;;;;;;4962068;28;20886;-75
2021/10/31 03:07:15;;;;;;;2.08;0.77;;;10.00;95.70;;;;;;4963908;28;20113;-74
2021/10/31 03:09:47;;;;;;;3.08;0.80;;;10.00;95.70;;;;;;4965882;28;20086;-74
2021/10/31 03:12:14;;;;;;;1.83;0.63;;;10.00;95.70;;;;;;4967254;28;20446;-74
2021/10/31 03:14:41;;;;;;;1.17;0.52;;;10.00;95.70;;;;;;4966313;28;20072;-74
2021/10/31 03:17:08;;;;;;;1.50;0.65;;;9.90;95.70;;;;;;4967369;28;20047;-77
2021/10/31 03:19:36;;;;;;;2.00;0.80;;;10.00;95.70;;;;;;4980138;28;20082;-77
2021/10/31 03:22:05;;;;;;;1.52;0.60;;;9.90;95.70;;;;;;4964443;28;20383;-74
2021/10/31 03:24:32;;;;;;;2.22;0.60;;;9.90;95.70;;;;;;4960144;28;20049;-74
2021/10/31 03:26:59;;;;;;;1.80;0.73;;;9.90;95.70;;;;;;4946186;28;20101;-74
2021/10/31 03:29:26;;;;;;;3.38;1.38;;;9.90;95.70;;;;;;4953423;28;20070;-74
2021/10/31 03:31:54;;;;;;;1.98;0.90;;;10.00;95.90;;;;;;4947902;28;20495;-75
2021/10/31 03:34:21;;;;;;;0.90;0.45;;;10.00;95.70;;;;;;4967646;28;20141;-75
2021/10/31 03:36:49;;;;;;;1.55;0.60;;;10.00;95.70;;;;;;4954075;28;20085;-74
2021/10/31 03:39:17;;;;;;;2.35;0.65;;;10.00;95.70;;;;;;4965770;28;20055;-74
2021/10/31 03:41:45;;;;;;;1.48;0.70;;;10.00;95.70;;;;;;4967922;28;20035;-74
2021/10/31 03:44:16;;;;;;;2.28;0.93;;;10.00;95.70;;;;;;4949158;28;20043;-74
2021/10/31 03:46:43;;;;;;;2.47;0.93;;;10.00;95.60;;;;;;4952421;28;20050;-74
2021/10/31 03:49:11;;;;;;;1.83;0.70;;;10.00;95.60;;;;;;4960337;28;20110;-74
2021/10/31 03:51:39;;;;;;;2.47;0.88;;;10.00;95.60;;;;;;4972416;28;20054;-74
2021/10/31 03:54:06;;;;;;;1.70;0.50;;;10.10;95.60;;;;;;4970070;28;20082;-75
2021/10/31 03:56:33;;;;;;;2.17;0.80;;;10.10;95.60;;;;;;4948205;28;20118;-74
2021/10/31 03:59:00;;;;;;;1.75;0.60;;;10.10;95.60;;;;;;4967883;28;20414;-75
2021/10/31 04:01:31;;;;;;;2.08;0.65;;;10.10;95.90;;;;;;4965514;28;20043;-74
2021/10/31 04:03:59;;;;;;;1.83;0.52;;;10.10;95.60;;;;;;4939964;28;20039;-75
2021/10/31 04:06:27;;;;;;;1.80;0.65;;;10.10;95.60;;;;;;4968526;28;20094;-74
2021/10/31 04:08:54;;;;;;;1.75;0.70;;;10.10;95.60;;;;;;4963233;28;20039;-74
2021/10/31 04:11:22;;;;;;;1.55;0.70;;;10.10;95.60;;;;;;4962003;28;20098;-74
2021/10/31 04:13:49;;;;;;;1.25;0.47;;;10.10;95.60;;;;;;4959860;28;20038;-74
2021/10/31 04:16:16;;;;;;;1.25;0.50;;;10.10;95.60;;;;;;4968773;28;20070;-74
2021/10/31 04:18:43;;;;;;;1.63;0.60;;;10.10;95.60;;;;;;4953471;28;20063;-74
2021/10/31 04:21:11;;;;;;;2.25;0.80;;;10.10;95.60;;;;;;4970250;28;20603;-74
2021/10/31 04:23:37;;;;;;;1.48;0.60;;;10.10;95.60;;;;;;4954405;28;20047;-74
2021/10/31 04:26:05;;;;;;;2.00;0.98;;;10.20;95.60;;;;;;4948003;28;20455;-74
2021/10/31 04:28:31;;;;;;;1.30;0.50;;;10.10;95.50;;;;;;4967471;28;20063;-74
2021/10/31 04:30:59;;;;;;;2.25;0.80;;;10.10;95.50;;;;;;4967805;28;20076;-75
2021/10/31 04:33:28;;;;;;;1.55;0.70;;;10.10;95.50;;;;;;4967120;28;20774;-74
2021/10/31 04:35:55;;;;;;;2.00;0.73;;;10.10;95.50;;;;;;4958500;28;20450;-74
2021/10/31 04:38:27;;;;;;;1.73;1.00;;;10.10;95.50;;;;;;4950236;28;20081;-74
2021/10/31 04:40:54;;;;;;;1.55;0.57;;;10.10;95.80;;;;;;4966785;28;20090;-74
2021/10/31 04:43:23;;;;;;;1.38;0.70;;;10.10;95.60;;;;;;4953581;28;20043;-74
2021/10/31 04:45:50;;;;;;;1.73;0.70;;;10.00;95.50;;;;;;4968081;28;20260;-74
2021/10/31 04:48:18;;;;;;;1.60;0.50;;;10.10;95.50;;;;;;4963732;28;20410;-74
2021/10/31 04:50:45;;;;;;;1.42;0.93;;;10.00;95.50;;;;;;4948453;28;20055;-74
2021/10/31 04:53:13;;;;;;;1.33;0.60;;;9.90;95.50;;;;;;4948677;28;20110;-74
2021/10/31 04:55:41;;;;;;;1.48;0.50;;;9.90;95.50;;;;;;4965534;28;20078;-74
2021/10/31 04:58:09;;;;;;;1.45;0.70;;;9.90;95.50;;;;;;4967599;28;20089;-74
2021/10/31 05:00:37;;;;;;;1.40;0.57;;;9.90;95.50;;;;;;4968602;28;20137;-74
2021/10/31 05:03:05;;;;;;;1.77;0.70;;;9.80;95.50;;;;;;4967816;28;20031;-74
2021/10/31 05:05:32;;;;;;;1.50;0.77;;;9.80;95.50;;;;;;4963662;28;20035;-74
2021/10/31 05:08:01;;;;;;;1.92;0.50;;;9.80;95.60;;;;;;4966250;28;20050;-74
2021/10/31 05:10:28;;;;;;;1.17;0.55;;;9.70;95.50;;;;;;4947429;28;20049;-74
2021/10/31 05:12:55;;;;;;;2.22;0.57;;;9.70;95.60;;;;;;4966404;28;20059;-75
2021/10/31 05:15:22;;;;;;;1.70;0.60;;;9.70;95.60;;;;;;4963410;28;20090;-74
2021/10/31 05:17:50;;;;;;;0.98;0.55;;;9.70;95.60;;;;;;4965441;28;20491;-74
2021/10/31 05:20:17;;;;;;;1.42;0.52;;;9.60;95.50;;;;;;4917147;28;20086;-74
2021/10/31 05:22:44;;;;;;;3.10;0.80;;;9.60;95.90;;;;;;4943830;28;20045;-74
2021/10/31 05:25:12;;;;;;;2.22;0.60;;;9.60;95.60;;;;;;4957760;28;20067;-74
2021/10/31 05:27:39;;;;;;;1.92;0.65;;;9.60;95.60;;;;;;4960082;28;20039;-74
2021/10/31 05:30:09;;;;;;;1.95;0.70;;;9.60;95.60;;;;;;4949810;28;20046;-74
2021/10/31 05:32:38;;;;;;;2.33;0.98;;;9.60;95.60;;;;;;4967718;28;20043;-74
2021/10/31 05:35:07;;;;;;;1.85;0.88;;;9.60;95.60;;;;;;4949519;28;20134;-74
2021/10/31 05:37:45;;;;;;;1.73;0.95;;;9.60;95.60;;;;;;4965607;28;20554;-74
2021/10/31 05:40:15;;;;;;;1.45;0.77;;;9.60;95.60;;;;;;4938071;28;20530;-75
2021/10/31 05:42:43;;;;;;;1.77;0.70;;;9.60;95.60;;;;;;4962864;28;20046;-74
2021/10/31 05:45:11;;;;;;;1.58;0.50;;;9.50;95.50;;;;;;4961584;28;20069;-74
2021/10/31 05:47:40;;;;;;;1.30;0.80;;;9.50;95.50;;;;;;4939816;28;20559;-74
2021/10/31 05:50:09;;;;;;;1.88;0.68;;;9.50;95.60;;;;;;4963823;28;20078;-74
2021/10/31 05:52:39;;;;;;;1.90;0.73;;;9.40;95.60;;;;;;4965903;28;20455;-74
2021/10/31 05:55:07;;;;;;;2.33;0.90;;;9.40;95.60;;;;;;4965504;28;20070;-74
2021/10/31 05:57:35;;;;;;;2.22;0.88;;;9.40;95.60;;;;;;4966606;28;20092;-74
2021/10/31 06:00:06;;;;;;;1.88;0.95;;;9.40;95.70;;;;;;4950363;28;20043;-74
2021/10/31 06:02:42;;;;;;;2.22;0.80;;;9.40;95.70;;;;;;4962938;28;20389;-74
2021/10/31 06:05:11;;;;;;;2.47;1.00;;;9.40;95.70;;;;;;4964891;28;20035;-77
2021/10/31 06:07:42;;;;;;;2.22;0.82;;;9.40;95.70;;;;;;4966374;28;20508;-78
2021/10/31 06:10:10;;;;;;;2.38;1.08;;;9.40;95.70;;;;;;4967377;28;20046;-78
2021/10/31 06:12:45;;;;;;;2.70;0.98;;;9.40;95.70;;;;;;4929258;28;20452;-78
2021/10/31 06:15:14;;;;;;;2.45;0.90;;;9.50;95.70;;;;;;4965933;28;20126;-78
2021/10/31 06:17:41;;;;;;;3.50;1.17;;;9.50;95.70;;;;;;4949613;28;20470;-78
2021/10/31 06:20:10;;;;;;;2.67;1.23;;;9.50;95.70;;;;;;4960952;28;20042;-78
2021/10/31 06:22:38;;;;;;;2.10;1.10;;;9.60;95.70;;;;;;4953774;28;20530;-77
2021/10/31 06:25:07;;;;;;;1.30;0.70;;;9.60;95.70;;;;;;4963533;28;20038;-77
2021/10/31 06:27:34;;;;;;;2.28;0.90;;;9.70;95.70;;;;;;4944553;28;20126;-78
2021/10/31 06:30:01;;;;;;;2.17;1.08;;;9.70;95.60;;;;;;4963633;28;20086;-77
2021/10/31 06:32:28;;;;;;;2.30;0.88;;;9.80;95.60;;;;;;4944108;28;20105;-78
2021/10/31 06:34:55;;;;;;;2.00;0.90;;;9.80;95.60;;;;;;4958687;28;20134;-77
2021/10/31 06:37:22;;;;;;;2.22;0.90;;;9.80;95.60;;;;;;4942868;28;20130;-77
2021/10/31 06:39:49;;;;;;;1.70;0.80;;;9.90;95.60;;;;;;4947910;28;20042;-78
2021/10/31 06:42:16;;;;;;;1.75;0.80;;;9.90;95.60;;;;;;4930687;28;20407;-78
2021/10/31 06:44:43;;;;;;;1.83;0.65;;;9.90;95.50;;;;;;4959803;28;20058;-77
2021/10/31 06:47:10;;;;;;;2.05;0.95;;;9.90;95.50;;;;;;4983015;28;20201;-78
2021/10/31 06:49:40;;;;;;;1.10;0.63;;;9.90;95.50;;;;;;4970354;28;20047;-77
2021/10/31 06:52:07;;;;;;;2.00;0.80;;;10.00;95.60;;;;;;4975762;28;20047;-78
2021/10/31 06:54:34;;;;;;;2.63;1.15;;;10.00;95.50;;;;;;4966660;28;20062;-77
2021/10/31 06:57:03;;;;;;;1.95;0.77;;;10.00;95.50;;;;;;4978208;28;20114;-77
2021/10/31 06:59:32;;;;;;;2.33;0.85;;;10.00;95.50;;;;;;4929247;29;20503;-74
2021/10/31 07:02:00;;;;;;;1.90;1.00;;;10.00;95.60;;;;;;4957615;28;20090;-74
2021/10/31 07:04:29;;;;;;;2.00;0.90;;;10.00;95.50;;;;;;4969766;28;20069;-74
2021/10/31 07:06:56;;;;;;;2.38;0.90;;;10.00;95.50;;;;;;4968004;28;20129;-74
2021/10/31 07:09:23;;;;;;;2.85;1.10;;;10.00;95.50;;;;;;4956500;28;20046;-74
2021/10/31 07:11:50;;;;;;;2.13;1.00;;;10.00;95.50;;;;;;4927229;28;20050;-74
2021/10/31 07:14:17;;;;;;;2.70;1.10;;;10.00;95.50;;;;;;4956160;28;20047;-74
2021/10/31 07:16:45;;;;;;;2.05;0.85;;;10.00;95.50;;;;;;4968112;28;20125;-74
2021/10/31 07:19:12;;;;;;;2.33;0.90;;;10.00;95.50;;;;;;4962269;28;20045;-74
2021/10/31 07:21:39;;;;;;;3.42;0.90;;;10.10;95.60;;;;;;4960150;28;20039;-74
2021/10/31 07:24:07;;;;;;;2.10;0.95;;;10.00;95.50;;;;;;4942814;28;20106;-74
2021/10/31 07:26:34;;;;;;;1.73;0.80;;;10.10;95.50;;;;;;4952148;28;20081;-74
2021/10/31 07:29:05;;;;;;;2.15;1.10;;;10.10;95.50;;;;;;4967527;28;20566;-74
2021/10/31 07:31:35;;;;;;;2.33;0.82;;;10.20;95.50;;;;;;4968407;28;20106;-74
2021/10/31 07:34:09;;;;;;;2.53;0.90;;;10.20;95.50;;;;;;4954440;28;20074;-74
2021/10/31 07:36:36;;;;;;;;;;;10.20;95.50;;;;;;4957937;28;20047;-74
2021/10/31 07:39:04;;;;;;;2.60;0.98;;;10.20;95.50;;;;;;4968798;28;20071;-74
2021/10/31 07:41:32;;;;;;;1.25;0.70;;;10.20;95.50;;;;;;4944456;28;20050;-74
2021/10/31 07:43:59;;;;;;;2.22;0.90;;;10.30;95.50;;;;;;4969452;28;20093;-74
2021/10/31 07:46:26;;;;;;;2.17;0.82;;;10.40;95.50;;;;;;4963075;28;20043;-74
2021/10/31 07:48:53;;;;;;;2.22;0.80;;;10.40;95.50;;;;;;4930911;28;20126;-74
2021/10/31 07:51:20;;;;;;;2.30;1.00;;;10.50;95.50;;;;;;4952564;28;20118;-74
2021/10/31 07:53:47;;;;;;;1.70;0.98;;;10.50;95.40;;;;;;4967210;28;20058;-74
2021/10/31 07:56:17;;;;;;;2.45;1.10;;;10.60;95.40;;;;;;4951462;28;20137;-74
2021/10/31 07:58:46;;;;;;;2.35;1.00;;;10.60;95.40;;;;;;4939163;28;20054;-74
2021/10/31 08:01:14;;;;;;;1.85;0.80;;;10.70;95.40;;;;;;4952432;28;20055;-74
2021/10/31 08:03:41;;;;;;;2.10;1.02;;;10.70;95.30;;;;;;4933599;28;20058;-74
2021/10/31 08:06:09;;;;;;;1.60;0.68;;;10.80;95.30;;;;;;4954602;28;20053;-74
2021/10/31 08:08:36;;;;;;;1.75;1.02;;;10.80;95.30;;;;;;4969279;28;20026;-74
2021/10/31 08:11:03;;;;;;;1.83;1.00;;;10.90;95.30;;;;;;4952110;28;20045;-74
2021/10/31 08:13:33;;;;;;;2.60;1.20;;;10.90;95.30;;;;;;4953280;28;20038;-75
2021/10/31 08:16:00;;;;;;;1.95;1.00;;;11.00;95.30;;;;;;4964639;28;20047;-74
2021/10/31 08:18:28;;;;;;;2.17;1.15;;;11.00;95.20;;;;;;4949162;28;21018;-75
2021/10/31 08:20:55;;;;;;;2.33;0.93;;;11.00;95.20;;;;;;4924923;28;21715;-75
2021/10/31 08:23:22;;;;;;;1.95;0.70;;;11.10;95.20;;;;;;4979854;28;20041;-75
2021/10/31 08:25:50;;;;;;;2.97;1.00;;;11.10;95.20;;;;;;4966102;28;20069;-76
2021/10/31 08:28:19;;;;;;;2.85;1.17;;;11.10;95.20;;;;;;4952688;28;20043;-76
2021/10/31 08:31:00;;;;;;;2.20;0.90;;;11.20;95.20;;;;;;4945627;28;20376;-76
2021/10/31 08:33:35;;;;;;;1.95;0.85;;;11.20;95.20;;;;;;4975139;28;20042;-75
2021/10/31 08:36:06;;;;;;;3.08;1.23;;;11.30;95.20;;;;;;4974477;28;20042;-74
2021/10/31 08:38:33;;;;;;;2.65;1.15;;;11.30;95.10;;;;;;4947542;29;20558;-74
2021/10/31 08:41:01;;;;;;;3.28;1.17;;;11.30;95.20;;;;;;4970841;28;20043;-74
2021/10/31 08:43:29;;;;;;;2.95;1.20;;;11.40;95.10;;;;;;4956779;28;20109;-74
2021/10/31 08:45:56;;;;;;;2.00;0.93;;;11.40;95.10;;;;;;4973454;28;20042;-75
2021/10/31 08:48:24;;;;;;;2.53;1.10;;;11.40;95.10;;;;;;4942051;28;20789;-74
2021/10/31 08:50:51;;;;;;;2.25;1.10;;;11.40;95.10;;;;;;4973485;28;20109;-74
2021/10/31 08:53:19;;;;;;;1.67;0.90;;;11.50;95.10;;;;;;4956830;28;20443;-75
2021/10/31 08:55:46;;;;;;;2.78;1.63;;;11.50;95.10;;;;;;4929563;28;20054;-75
2021/10/31 08:58:13;;;;;;;3.15;1.10;;;11.50;95.00;;;;;;4971684;28;20042;-77
2021/10/31 09:00:41;;;;;;;2.45;1.05;;;11.50;95.00;;;;;;4974034;28;20039;-78
2021/10/31 09:03:09;;;;;;;2.58;1.10;;;11.50;95.00;;;;;;4971404;28;20154;-77
2021/10/31 09:05:37;;;;;;;2.28;1.20;;;11.50;95.00;;;;;;4953735;28;20130;-79
2021/10/31 09:08:06;;;;;;;1.92;0.95;;;11.50;95.00;;;;;;4949208;28;20097;-78
2021/10/31 09:10:33;;;;;;;2.10;0.90;;;11.50;95.00;;;;;;4973587;28;20035;-79
2021/10/31 09:13:00;;;;;;;2.08;1.00;;;11.50;95.00;;;;;;4941036;28;20054;-78
2021/10/31 09:15:29;;;;;;;2.15;0.90;;;11.50;95.00;;;;;;4959733;28;20153;-78
2021/10/31 09:17:57;;;;;;;2.00;1.08;;;11.50;95.00;;;;;;4973027;28;20092;-78
2021/10/31 09:20:27;;;;;;;1.98;0.90;;;11.60;95.00;;;;;;4973428;28;20043;-78
2021/10/31 09:22:57;;;;;;;3.83;1.75;;;11.60;95.00;;;;;;4964851;28;20055;-78
2021/10/31 09:25:26;;;;;;;2.33;1.00;;;11.60;95.00;;;;;;4965289;28;20058;-78
2021/10/31 09:27:57;;;;;;;2.95;0.95;;;11.70;95.00;;;;;;4968598;28;20031;-79
2021/10/31 09:30:26;;;;;;;2.03;1.25;;;11.70;94.90;;;;;;4974669;28;20496;-78
2021/10/31 09:32:54;;;;;;;3.53;1.25;;;11.80;94.90;;;;;;4952798;28;20707;-77
2021/10/31 09:35:33;;;;;;;3.38;1.30;;;11.80;94.90;;;;;;4973916;28;20046;-77
2021/10/31 09:38:03;;;;;;;3.97;1.60;;;11.90;94.90;;;;;;4945477;28;20101;-77
2021/10/31 09:40:32;;;;;;;2.67;1.38;;;11.90;94.80;;;;;;4974695;28;20053;-78
2021/10/31 09:43:03;;;;;;;1.92;1.20;;;11.90;94.80;;;;;;4948157;28;20051;-77
2021/10/31 09:45:32;;;;;;;2.60;1.27;;;12.00;94.80;;;;;;4961132;28;20105;-78
2021/10/31 09:48:08;;;;;;;2.13;1.27;;;12.00;94.70;;;;;;4960674;28;20043;-78
2021/10/31 09:50:39;;;;;;;2.67;1.17;;;12.00;94.70;;;;;;4954010;28;20054;-77
2021/10/31 09:53:07;;;;;;;3.45;2.00;;;12.10;95.00;;;;;;4966852;28;20134;-77
2021/10/31 09:55:35;;;;;;;4.68;1.88;;;12.10;94.60;;;;;;4953875;28;20077;-77
2021/10/31 09:58:05;;;;;;;2.83;1.55;;;12.10;94.60;;;;;;4965247;28;20054;-77
2021/10/31 10:00:40;;;;;;;2.63;1.40;;;12.10;94.60;;;;;;4972839;28;20043;-75
2021/10/31 10:03:23;;;;;;;2.25;1.42;;;12.20;94.60;;;;;;4961356;28;20122;-75
2021/10/31 10:06:19;;;;;;;3.38;1.15;;;12.30;94.60;;;;;;4957295;28;20090;-75
2021/10/31 10:09:15;;;;;;;2.17;1.02;;;12.30;94.50;;;;;;4964341;28;20058;-75
2021/10/31 10:11:44;;;;;;;2.13;1.00;;;12.30;94.40;;;;;;4944695;28;20055;-75
2021/10/31 10:14:24;;;;;;;1.63;0.73;;;12.40;94.50;;;;;;4957173;28;20066;-74
2021/10/31 10:16:58;;;;;;;1.70;0.80;;;12.40;94.40;;;;;;4961841;28;20044;-75
2021/10/31 10:19:27;;;;;;;2.72;1.05;;;12.50;94.40;;;;;;4948237;28;20105;-77
2021/10/31 10:22:05;;;;;;;2.00;1.20;;;12.50;94.40;;;;;;4967506;28;20455;-77
2021/10/31 10:24:35;;;;;;;1.63;0.80;;;12.50;94.30;;;;;;4959301;28;20039;-77
2021/10/31 10:27:05;;;;;;;1.27;0.60;;;12.60;94.40;;;;;;4946396;28;20043;-77
2021/10/31 10:29:38;;;;;;;1.60;0.60;;;12.60;94.30;;;;;;4963497;28;20781;-77
2021/10/31 10:32:15;;;;;;;3.30;0.90;;;12.70;94.30;;;;;;4962593;28;20044;-77
2021/10/31 10:34:48;;;;;;;1.60;0.70;;;12.70;94.30;;;;;;4964515;28;20142;-77
2021/10/31 10:37:16;;;;;;;1.33;0.70;;;12.70;94.30;;;;;;4971857;28;20042;-77
2021/10/31 10:39:50;;;;;;;2.03;1.05;;;12.70;94.20;;;;;;4949729;28;20047;-77
2021/10/31 10:42:22;;;;;;;1.70;0.70;;;12.80;94.20;;;;;;4969065;28;20046;-76
2021/10/31 10:44:53;;;;;;;1.92;0.90;;;12.80;94.20;;;;;;4964333;28;20031;-76
2021/10/31 10:47:21;;;;;;;1.33;0.60;;;12.80;94.20;;;;;;4963224;28;20051;-75
2021/10/31 10:49:50;;;;;;;1.35;0.80;;;12.90;94.20;;;;;;4957866;28;20468;-76
2021/10/31 10:52:33;;;;;;;3.45;0.82;;;13.00;94.10;;;;;;4958805;28;20042;-74
2021/10/31 10:55:12;;;;;;;1.58;0.60;;;13.10;94.00;;;;;;4969348;28;20463;-74
2021/10/31 10:57:43;;;;;;;1.40;0.60;;;13.10;94.00;;;;;;4972627;28;20163;-74
2021/10/31 11:00:22;;;;;;;1.42;0.63;;;13.30;93.90;;;;;;4966952;28;20039;-74
2021/10/31 11:03:20;;;;;;;0.95;0.50;;;13.40;93.80;;;;;;4958089;28;20106;-74
2021/10/31 11:05:50;;;;;;;1.60;0.52;;;13.50;93.70;;;;;;4971218;28;20098;-74
2021/10/31 11:08:24;;;;;;;1.25;0.55;;;13.60;93.70;;;;;;4971745;28;20142;-73
2021/10/31 11:11:02;;;;;;;1.08;0.47;;;13.70;93.60;;;;;;4936412;28;20046;-74
2021/10/31 11:13:31;;;;;;;1.02;0.70;;;13.70;93.50;;;;;;4972063;28;20490;-76
2021/10/31 11:16:00;;;;;;;3.20;0.50;;;13.80;93.50;;;;;;4971416;28;20063;-74
2021/10/31 11:18:28;;;;;;;1.20;0.50;;;13.80;93.50;;;;;;4971881;28;20050;-76
2021/10/31 11:20:55;;;;;;;2.90;0.70;;;13.90;93.40;;;;;;4971652;28;20050;-76
2021/10/31 11:23:23;;;;;;;1.48;0.47;;;13.90;93.40;;;;;;4971399;28;20043;-76
2021/10/31 11:25:51;;;;;;;1.13;0.40;;;14.00;93.30;;;;;;4940120;28;20054;-76
2021/10/31 11:28:20;;;;;;;2.92;0.50;;;14.10;93.30;;;;;;4963201;28;20047;-76
2021/10/31 11:30:50;;;;;;;1.38;0.75;;;14.10;93.20;;;;;;4965494;28;20118;-75
2021/10/31 11:33:18;;;;;;;0.93;0.40;;;14.10;93.10;;;;;;4976153;28;20113;-76
2021/10/31 11:35:45;;;;;;;1.02;0.60;;;14.10;93.20;;;;;;4975062;28;20129;-76
2021/10/31 11:38:23;;;;;;;1.08;0.40;;;14.10;93.20;;;;;;4974752;28;20039;-77
2021/10/31 11:41:10;;;;;;;1.08;0.40;;;14.20;93.10;;;;;;4975299;28;20411;-76
2021/10/31 11:43:45;;;;;;;0.55;0.30;;;14.20;93.10;;;;;;4975976;28;20047;-76
2021/10/31 11:46:12;;;;;;;0.55;0.30;;;14.20;93.10;;;;;;4971387;28;20047;-77
2021/10/31 11:48:39;;;;;;;1.02;0.40;;;14.30;93.10;;;;;;4970583;28;20065;-76
2021/10/31 11:51:10;;;;;;;1.25;0.60;;;14.30;93.00;;;;;;4950674;28;20043;-76
2021/10/31 11:53:44;;;;;;;1.13;0.40;;;14.30;93.00;;;;;;4975074;28;20043;-76
2021/10/31 11:56:25;;;;;;;1.40;0.55;;;14.30;92.90;;;;;;4967277;28;21336;-76
2021/10/31 11:59:01;;;;;;;1.33;0.45;;;14.30;92.90;;;;;;4973965;28;20062;-76
2021/10/31 12:01:37;;;;;;;1.40;0.57;;;14.30;92.90;;;;;;4974485;28;20422;-76
2021/10/31 12:04:13;;;;;;;0.75;0.35;;;14.30;92.90;;;;;;4973945;28;20554;-76
2021/10/31 12:06:44;;;;;;;1.17;0.43;;;14.40;93.00;;;;;;4967444;28;20054;-75
2021/10/31 12:09:23;;;;;;;0.45;0.30;;;14.40;93.00;;;;;;4969514;28;20047;-76
2021/10/31 12:11:56;;;;;;;0.87;0.30;;;14.30;92.90;;;;;;4939205;28;20102;-76
2021/10/31 12:14:51;;;;;;;1.23;0.40;;;14.30;93.00;;;;;;4964555;28;20302;-75
2021/10/31 12:17:19;;;;;;;0.50;0.30;;;14.40;92.90;;;;;;4974982;28;20383;-76
2021/10/31 12:19:49;;;;;;;1.55;0.40;;;14.30;93.20;;;;;;4965823;28;20396;-76
2021/10/31 12:22:19;;;;;;;0.32;0.20;;;14.40;92.90;;;;;;4971212;28;20047;-76
2021/10/31 12:24:56;;;;;;;1.42;0.60;;;14.40;92.80;;;;;;4960548;28;20050;-76
2021/10/31 12:27:25;;;;;;;0.43;0.30;;;14.50;92.80;;;;;;4968829;28;20039;-76
2021/10/31 12:30:37;;;;;;;0.40;0.28;;;14.50;92.80;;;;;;4963163;28;20046;-76
2021/10/31 12:33:09;;;;;;;0.82;0.30;;;14.60;92.80;;;;;;4974737;28;20043;-75
2021/10/31 12:35:45;;;;;;;1.13;0.30;;;14.50;92.80;;;;;;4962980;28;20098;-75
2021/10/31 12:38:23;;;;;;;0.60;0.30;;;14.60;92.70;;;;;;4955147;28;20035;-76
2021/10/31 12:41:06;;;;;;;0.70;0.30;;;14.60;92.70;;;;;;4969558;28;20046;-75
2021/10/31 12:43:45;;;;;;;0.55;0.30;;;14.70;92.80;;;;;;4964636;28;20044;-76
2021/10/31 12:46:27;;;;;;;0.57;0.20;;;14.70;92.80;;;;;;4972437;28;20042;-76
2021/10/31 12:49:00;;;;;;;0.95;0.32;;;14.70;92.70;;;;;;4974087;28;20487;-76
2021/10/31 12:51:58;;;;;;;0.77;0.40;;;14.70;92.80;;;;;;4975101;28;20047;-76
2021/10/31 12:54:30;;;;;;;0.50;0.30;;;14.70;92.70;;;;;;4967200;28;20066;-75
2021/10/31 12:56:57;;;;;;;0.57;0.25;;;14.70;92.70;;;;;;4967258;28;20069;-76
2021/10/31 12:59:25;;;;;;;0.70;0.20;;;14.80;92.70;;;;;;4975375;28;20095;-76
2021/10/31 13:02:08;;;;;;;0.25;0.15;;;14.80;92.70;;;;;;4974243;28;20042;-77
2021/10/31 13:05:03;;;;;;;0.50;0.28;;;14.90;92.80;;;;;;4964544;28;20049;-76
2021/10/31 13:07:46;;;;;;;0.57;0.30;;;15.00;92.50;;;;;;4973447;28;20042;-75
2021/10/31 13:10:30;;;;;;;0.65;0.30;;;15.00;92.60;;;;;;4973387;28;20588;-75